createdAt,value
2023-03-23T15:59:32.445Z,99538.66
2023-03-23T16:02:00.369Z,99547.88
2023-03-23T16:04:29.016Z,99552.50
2023-03-23T16:06:56.862Z,99553.56
2023-03-23T16:09:24.806Z,99550.00
2023-03-23T16:11:52.610Z,99559.22
2023-03-23T16:14:20.562Z,99546.63
2023-03-23T16:16:50.791Z,99546.63
2023-03-23T16:19:20.594Z,99537.81
2023-03-23T16:21:48.776Z,99539.28
2023-03-23T16:24:16.596Z,99550.19
2023-03-23T16:26:44.413Z,99547.91
2023-03-23T16:29:18.862Z,99556.09
2023-03-23T16:31:56.716Z,99547.50
2023-03-23T16:34:24.939Z,99553.16
2023-03-23T16:36:52.861Z,99562.41
2023-03-23T16:39:21.222Z,99567.22
2023-03-23T16:41:49.207Z,99581.09
2023-03-23T16:44:17.249Z,99592.84
2023-03-23T16:46:45.117Z,99594.94
2023-03-23T16:49:13.493Z,99582.34
2023-03-23T16:51:42.810Z,99579.63
2023-03-23T16:54:11.937Z,99576.91
2023-03-23T16:56:39.801Z,99568.06
2023-03-23T16:59:07.698Z,99583.13
2023-03-23T17:01:36.070Z,99583.56
2023-03-23T17:04:03.993Z,99589.88
2023-03-23T17:06:31.935Z,99591.53
2023-03-23T17:08:59.765Z,99580.00
2023-03-23T17:11:27.862Z,99579.16
2023-03-23T17:13:55.731Z,99573.94
2023-03-23T17:16:23.893Z,99564.28
2023-03-23T17:18:51.851Z,99558.81
2023-03-23T17:21:20.792Z,99556.72
2023-03-23T17:23:48.689Z,99548.53
2023-03-23T17:26:16.676Z,99545.81
2023-03-23T17:28:44.567Z,99548.72
2023-03-23T17:31:12.951Z,99554.63
2023-03-23T17:33:41.162Z,99548.13
2023-03-23T17:36:09.064Z,99550.66
2023-03-23T17:38:37.102Z,99563.47
2023-03-23T17:41:08.138Z,99554.66
2023-03-23T17:43:36.464Z,99567.47
2023-03-23T17:46:05.303Z,99576.91
2023-03-23T17:48:33.194Z,99567.44
2023-03-23T17:51:02.691Z,99572.06
2023-03-23T17:53:30.871Z,99569.75
2023-03-23T17:55:59.258Z,99568.03
2023-03-23T17:58:27.910Z,99572.66
2023-03-23T18:00:56.101Z,99568.03
2023-03-23T18:03:24.470Z,99571.59
2023-03-23T18:05:53.541Z,99573.50
2023-03-23T18:08:21.795Z,99574.75
2023-03-23T18:10:52.888Z,99575.19
2023-03-23T18:13:21.295Z,99568.66
2023-03-23T18:15:49.632Z,99587.75
2023-03-23T18:18:17.902Z,99591.56
2023-03-23T18:20:46.290Z,99594.06
2023-03-23T18:23:14.200Z,99586.09
2023-03-23T18:25:42.581Z,99584.41
2023-03-23T18:28:10.635Z,99574.34
2023-03-23T18:30:38.638Z,99577.69
2023-03-23T18:33:06.779Z,99584.41
2023-03-23T18:35:35.032Z,99580.22
2023-03-23T18:38:03.406Z,99587.56
2023-03-23T18:40:31.304Z,99584.63
2023-03-23T18:43:00.747Z,99597.00
2023-03-23T18:45:31.348Z,99589.88
2023-03-23T18:47:59.203Z,99593.66
2023-03-23T18:50:28.322Z,99592.41
2023-03-23T18:52:56.276Z,99587.78
2023-03-23T18:55:24.349Z,99591.53
2023-03-23T18:57:52.325Z,99582.53
2023-03-23T19:00:21.869Z,99592.59
2023-03-23T19:02:52.050Z,99601.59
2023-03-23T19:05:20.742Z,99599.09
2023-03-23T19:07:48.744Z,99589.84
2023-03-23T19:10:17.804Z,99586.09
2023-03-23T19:12:47.299Z,99592.56
2023-03-23T19:15:16.534Z,99591.75
2023-03-23T19:17:44.753Z,99594.06
2023-03-23T19:20:15.969Z,99592.22
2023-03-23T19:22:47.929Z,99588.63
2023-03-23T19:25:16.011Z,99591.56
2023-03-23T19:28:30.701Z,99578.97
2023-03-23T19:30:32.423Z,99576.91
2023-03-23T19:33:00.355Z,99583.63
2023-03-23T19:35:29.883Z,99579.19
2023-03-23T19:37:57.858Z,99590.34
2023-03-23T19:40:39.108Z,99587.78
2023-03-23T19:43:09.016Z,99589.03
2023-03-23T19:45:37.318Z,99588.19
2023-03-23T19:48:05.821Z,99592.81
2023-03-23T19:50:35.346Z,99597.41
2023-03-23T19:53:03.478Z,99603.28
2023-03-23T19:55:31.591Z,99598.06
2023-03-23T19:58:00.299Z,99606.44
2023-03-23T20:00:28.624Z,99607.06
2023-03-23T20:02:57.221Z,99605.81
2023-03-23T20:05:25.887Z,99608.75
2023-03-23T20:07:53.708Z,99598.91
2023-03-23T20:10:21.685Z,99603.53
2023-03-23T20:12:49.513Z,99611.91
2023-03-23T20:15:17.607Z,99609.38
2023-03-23T20:17:45.508Z,99606.88
2023-03-23T20:20:14.980Z,99600.56
2023-03-23T20:22:42.861Z,99607.06
2023-03-23T20:25:12.772Z,99607.06
2023-03-23T20:27:42.484Z,99604.56
2023-03-23T20:30:11.884Z,99599.09
2023-03-23T20:32:40.795Z,99602.03
2023-03-23T20:35:13.149Z,99598.47
2023-03-23T20:37:41.225Z,99593.22
2023-03-23T20:40:08.991Z,99594.47
2023-03-23T20:42:36.841Z,99589.03
2023-03-23T20:45:04.636Z,99588.19
2023-03-23T20:47:32.574Z,99588.19
2023-03-23T20:50:00.939Z,99588.19
2023-03-23T20:52:28.764Z,99580.00
2023-03-23T20:54:56.644Z,99583.56
2023-03-23T20:57:24.455Z,99581.91
2023-03-23T20:59:52.359Z,99584.81
2023-03-23T21:02:20.377Z,99585.47
2023-03-23T21:04:48.963Z,99577.69
2023-03-23T21:07:18.182Z,99576.88
2023-03-23T21:09:46.058Z,99573.91
2023-03-23T21:12:15.029Z,99573.09
2023-03-23T21:14:45.023Z,99561.34
2023-03-23T21:17:12.905Z,99564.28
2023-03-23T21:19:41.408Z,99563.00
2023-03-23T21:22:09.825Z,99561.13
2023-03-23T21:24:38.845Z,99558.81
2023-03-23T21:27:06.800Z,99556.97
2023-03-23T21:29:34.599Z,99552.53
2023-03-23T21:32:08.228Z,99559.69
2023-03-23T21:34:37.278Z,99555.25
2023-03-23T21:37:05.061Z,99555.47
2023-03-23T21:39:33.699Z,99553.19
2023-03-23T21:42:02.797Z,99552.53
2023-03-23T21:44:34.834Z,99548.78
2023-03-23T21:47:03.077Z,99553.19
2023-03-23T21:49:31.675Z,99552.53
2023-03-23T21:52:00.298Z,99545.19
2023-03-23T21:54:30.225Z,99544.59
2023-03-23T21:56:58.910Z,99542.69
2023-03-23T21:59:29.773Z,99547.69
2023-03-23T22:01:59.227Z,99546.69
2023-03-23T22:04:29.726Z,99544.59
2023-03-23T22:06:57.666Z,99540.41
2023-03-23T22:09:26.382Z,99534.94
2023-03-23T22:11:54.274Z,99535.13
2023-03-23T22:14:22.205Z,99528.84
2023-03-23T22:16:50.189Z,99531.59
2023-03-23T22:19:18.186Z,99529.88
2023-03-23T22:21:46.187Z,99526.75
2023-03-23T22:24:16.483Z,99516.69
2023-03-23T22:26:44.365Z,99518.38
2023-03-23T22:29:12.408Z,99514.78
2023-03-23T22:31:40.749Z,99513.75
2023-03-23T22:34:08.855Z,99504.53
2023-03-23T22:36:36.819Z,99501.81
2023-03-23T22:39:06.762Z,99493.84
2023-03-23T22:41:34.692Z,99498.88
2023-03-23T22:44:02.924Z,99496.59
2023-03-23T22:46:30.787Z,99488.59
2023-03-23T22:49:01.630Z,99489.84
2023-03-23T22:51:29.650Z,99488.19
2023-03-23T22:53:57.539Z,99481.69
2023-03-23T22:56:25.627Z,99478.97
2023-03-23T22:58:53.746Z,99482.31
2023-03-23T23:01:21.857Z,99478.75
2023-03-23T23:03:49.983Z,99472.25
2023-03-23T23:06:17.983Z,99469.13
2023-03-23T23:08:45.950Z,99467.44
2023-03-23T23:11:13.864Z,99466.41
2023-03-23T23:13:42.070Z,99467.00
2023-03-23T23:16:10.126Z,99468.69
2023-03-23T23:18:38.609Z,99461.56
2023-03-23T23:21:06.678Z,99463.25
2023-03-23T23:23:34.863Z,99460.72
2023-03-23T23:26:02.817Z,99457.59
2023-03-23T23:28:31.151Z,99458.22
2023-03-23T23:31:02.046Z,99448.97
2023-03-23T23:33:30.037Z,99454.25
2023-03-23T23:35:58.004Z,99447.31
2023-03-23T23:38:26.183Z,99448.97
2023-03-23T23:40:54.250Z,99448.97
2023-03-23T23:43:22.257Z,99445.19
2023-03-23T23:45:50.655Z,99446.47
2023-03-23T23:48:18.589Z,99436.41
2023-03-23T23:50:47.680Z,99430.34
2023-03-23T23:53:16.746Z,99429.28
2023-03-23T23:55:44.727Z,99430.97
2023-03-23T23:58:12.766Z,99433.47
